Time;durP1;ratioP1;P1;durP2;ratioP2;P2;SDS_P1;SDS_P2;PMS_P1;PMS_P2;Temp;Humidity;BMP_temperature;BMP_pressure;BME280_temperature;BME280_humidity;BME280_pressure;Samples;Min_cycle;Max_cycle;Signal;HPM_P1;HPM_P2
2021/04/10 00:00:43;;;;;;;11.27;7.10;;;6.80;99.90;;;;;;4998183;28;20180;-96
2021/04/10 00:03:12;;;;;;;9.63;7.70;;;6.80;99.90;;;;;;5000364;28;20571;-96
2021/04/10 00:05:38;;;;;;;11.20;8.53;;;6.80;99.90;;;;;;4998608;28;20176;-96
2021/04/10 00:08:04;;;;;;;14.60;8.17;;;6.80;99.90;;;;;;4997318;28;20191;-94
2021/04/10 00:10:31;;;;;;;9.90;8.27;;;6.80;99.90;;;;;;4996716;28;20184;-96
2021/04/10 00:12:58;;;;;;;11.00;8.47;;;6.80;99.90;;;;;;4997269;28;20176;-96
2021/04/10 00:15:26;;;;;;;15.87;9.30;;;6.70;99.90;;;;;;4996787;28;20211;-95
2021/04/10 00:17:52;;;;;;;11.43;9.60;;;6.60;99.90;;;;;;4996859;28;20618;-96
2021/04/10 00:20:19;;;;;;;9.00;7.70;;;6.70;99.90;;;;;;4996775;28;20180;-96
2021/04/10 00:22:46;;;;;;;9.07;6.70;;;6.60;99.90;;;;;;4996905;28;20537;-96
2021/04/10 00:25:13;;;;;;;9.53;7.10;;;6.60;99.90;;;;;;4996636;28;20172;-96
2021/04/10 00:27:40;;;;;;;10.03;7.10;;;6.60;99.90;;;;;;4996548;28;20204;-96
2021/04/10 00:30:12;;;;;;;10.03;7.10;;;6.50;99.90;;;;;;4996824;28;20180;-96
2021/04/10 00:32:38;;;;;;;11.27;7.10;;;6.50;99.90;;;;;;4996287;28;20546;-96
2021/04/10 00:35:05;;;;;;;10.37;7.47;;;6.40;99.90;;;;;;4996794;28;20187;-96
2021/04/10 00:37:30;;;;;;;9.70;7.20;;;6.40;99.90;;;;;;4996475;28;20234;-96
2021/04/10 00:39:56;;;;;;;9.23;6.47;;;6.30;99.90;;;;;;4997437;28;20179;-96
2021/04/10 00:42:22;;;;;;;11.23;7.20;;;6.30;99.90;;;;;;4996121;28;20264;-95
2021/04/10 00:44:48;;;;;;;9.00;7.13;;;6.40;99.90;;;;;;4996104;28;20187;-96
2021/04/10 00:47:14;;;;;;;10.27;7.30;;;6.40;99.90;;;;;;4996026;28;20227;-96
2021/04/10 00:49:39;;;;;;;11.50;6.83;;;6.50;99.90;;;;;;4996271;28;20242;-96
2021/04/10 00:52:08;;;;;;;11.07;6.93;;;6.60;99.90;;;;;;4996110;28;20180;-96
2021/04/10 00:54:35;;;;;;;7.83;6.37;;;6.60;99.90;;;;;;4995788;28;20184;-96
2021/04/10 00:57:01;;;;;;;10.10;7.07;;;6.70;99.90;;;;;;4995965;28;20168;-96
2021/04/10 00:59:27;;;;;;;10.33;6.87;;;6.60;99.90;;;;;;4995411;28;20230;-96
2021/04/10 01:01:53;;;;;;;8.03;6.87;;;6.60;99.90;;;;;;4996301;28;20250;-96
2021/04/10 01:04:18;;;;;;;8.80;7.13;;;6.50;99.90;;;;;;4996003;28;20179;-96
2021/04/10 01:06:44;;;;;;;10.87;7.57;;;6.50;99.90;;;;;;4995983;28;20614;-96
2021/04/10 01:09:09;;;;;;;9.97;6.77;;;6.60;99.90;;;;;;4995951;28;20188;-96
2021/04/10 01:12:03;;;;;;;9.90;7.37;;;6.60;99.90;;;;;;4995524;28;20215;-95
2021/04/10 01:14:30;;;;;;;9.80;7.00;;;6.70;99.90;;;;;;4995772;28;20179;-96
2021/04/10 01:16:59;;;;;;;10.40;7.40;;;6.70;99.90;;;;;;4995860;28;20203;-95
2021/04/10 01:19:51;;;;;;;10.23;7.57;;;6.60;99.90;;;;;;4995920;28;20176;-96
2021/04/10 01:22:31;;;;;;;11.00;7.70;;;6.50;99.90;;;;;;4996417;28;20627;-96
2021/04/10 01:25:09;;;;;;;14.53;7.80;;;6.40;99.90;;;;;;4997236;28;20160;-96
2021/04/10 01:27:46;;;;;;;12.23;7.90;;;6.30;99.90;;;;;;4996134;28;20638;-96
2021/04/10 01:30:17;;;;;;;9.83;7.27;;;6.30;99.90;;;;;;4996024;28;20254;-96
2021/04/10 01:32:58;;;;;;;10.83;7.63;;;6.30;99.90;;;;;;4995274;28;20235;-96
2021/04/10 01:35:29;;;;;;;9.73;6.80;;;6.30;99.90;;;;;;4995595;28;20194;-96
2021/04/10 01:38:04;;;;;;;9.13;7.20;;;6.30;99.90;;;;;;4995589;28;20606;-96
2021/04/10 01:40:33;;;;;;;9.57;6.87;;;6.30;99.90;;;;;;4994879;28;20613;-96
2021/04/10 01:43:00;;;;;;;10.17;7.40;;;6.20;99.90;;;;;;4995386;28;20180;-95
2021/04/10 01:45:27;;;;;;;12.60;7.90;;;6.10;99.90;;;;;;4995346;28;20546;-95
2021/04/10 01:47:58;;;;;;;10.67;7.53;;;6.10;99.90;;;;;;4993311;28;20192;-94
2021/04/10 01:50:25;;;;;;;13.10;8.10;;;6.10;99.90;;;;;;4995264;28;20191;-94
2021/04/10 01:52:53;;;;;;;9.00;7.60;;;6.00;99.90;;;;;;4995077;28;20207;-95
2021/04/10 01:55:20;;;;;;;10.07;7.87;;;6.00;99.90;;;;;;4994661;28;20207;-95
2021/04/10 01:57:48;;;;;;;14.47;7.90;;;6.00;99.90;;;;;;4996121;28;20203;-94
2021/04/10 02:00:17;;;;;;;8.53;6.80;;;6.00;99.90;;;;;;4994986;28;20176;-94
2021/04/10 02:02:44;;;;;;;9.13;6.50;;;6.00;99.90;;;;;;4994809;28;20218;-95
2021/04/10 02:05:16;;;;;;;11.00;7.30;;;6.00;99.90;;;;;;4994737;28;20261;-95
2021/04/10 02:07:45;;;;;;;10.90;8.07;;;5.90;99.90;;;;;;4995144;28;20654;-94
2021/04/10 02:10:14;;;;;;;14.60;8.20;;;5.90;99.90;;;;;;4993633;28;20176;-96
2021/04/10 02:12:42;;;;;;;10.93;7.87;;;5.90;99.90;;;;;;4994684;28;20278;-96
2021/04/10 02:15:10;;;;;;;11.27;7.97;;;5.90;99.90;;;;;;4994538;28;20183;-95
2021/04/10 02:17:36;;;;;;;10.93;7.87;;;5.80;99.90;;;;;;4994718;28;20303;-95
2021/04/10 02:20:06;;;;;;;10.80;7.77;;;5.80;99.90;;;;;;4994587;28;20176;-94
2021/04/10 02:22:33;;;;;;;11.90;8.37;;;5.70;99.90;;;;;;4994179;28;20184;-95
2021/04/10 02:24:59;;;;;;;12.57;7.90;;;5.70;99.90;;;;;;4994252;28;20264;-95
2021/04/10 02:27:25;;;;;;;13.50;8.40;;;5.70;99.90;;;;;;4994536;28;20552;-95
2021/04/10 02:29:51;;;;;;;13.27;8.60;;;5.70;99.90;;;;;;4994608;28;20175;-95
2021/04/10 02:32:28;;;;;;;12.13;8.27;;;5.80;99.90;;;;;;4994216;28;20678;-95
2021/04/10 02:35:06;;;;;;;10.30;8.00;;;5.80;99.90;;;;;;4994215;28;20607;-95
2021/04/10 02:37:33;;;;;;;12.47;8.03;;;5.90;99.90;;;;;;4994361;28;20172;-95
2021/04/10 02:40:01;;;;;;;10.90;7.80;;;6.00;99.90;;;;;;4994223;28;20184;-95
2021/04/10 02:42:30;;;;;;;11.27;8.83;;;6.00;99.90;;;;;;4994086;28;20180;-94
2021/04/10 02:44:57;;;;;;;12.13;8.13;;;6.00;99.90;;;;;;4994256;28;20212;-95
2021/04/10 02:47:25;;;;;;;12.17;8.53;;;6.00;99.90;;;;;;4995126;28;20204;-95
2021/04/10 02:49:54;;;;;;;11.17;8.40;;;6.00;99.90;;;;;;4994348;28;20619;-95
2021/04/10 02:52:36;;;;;;;11.27;8.33;;;6.00;99.90;;;;;;4980605;28;20674;-95
2021/04/10 02:55:04;;;;;;;12.23;8.53;;;5.90;99.90;;;;;;4974820;28;20212;-95
2021/04/10 02:57:32;;;;;;;12.60;8.50;;;5.90;99.90;;;;;;4975057;28;20235;-96
2021/04/10 03:00:00;;;;;;;16.30;8.63;;;5.80;99.90;;;;;;4974875;28;20226;-96
2021/04/10 03:02:26;;;;;;;14.13;8.73;;;5.80;99.90;;;;;;4974569;28;20176;-96
2021/04/10 03:04:54;;;;;;;11.80;8.93;;;5.80;99.90;;;;;;4975061;28;20267;-96
2021/04/10 03:07:20;;;;;;;14.77;9.47;;;5.80;99.90;;;;;;4974490;28;20790;-96
2021/04/10 03:09:47;;;;;;;16.13;9.40;;;5.70;99.90;;;;;;4974788;28;20192;-95
2021/04/10 03:12:14;;;;;;;12.53;9.20;;;5.80;99.90;;;;;;4974661;28;20184;-95
2021/04/10 03:14:42;;;;;;;14.20;9.40;;;5.70;99.90;;;;;;4974483;28;20271;-96
2021/04/10 03:17:20;;;;;;;12.17;8.57;;;5.70;99.90;;;;;;4974456;28;20180;-96
2021/04/10 03:19:46;;;;;;;14.93;9.87;;;5.80;99.90;;;;;;4974801;28;20559;-96
2021/04/10 03:22:15;;;;;;;12.87;9.07;;;5.80;99.90;;;;;;4987936;28;20270;-96
2021/04/10 03:24:41;;;;;;;11.27;8.33;;;5.80;99.90;;;;;;4997670;28;20571;-96
2021/04/10 03:27:07;;;;;;;11.20;8.73;;;5.80;99.90;;;;;;4997702;28;20212;-96
2021/04/10 03:29:34;;;;;;;12.17;9.37;;;5.80;99.90;;;;;;4997503;28;20180;-96
2021/04/10 03:32:01;;;;;;;13.87;9.17;;;5.70;99.90;;;;;;4997406;28;20820;-96
2021/04/10 03:34:28;;;;;;;13.60;9.33;;;5.60;99.90;;;;;;4997670;28;20231;-96
2021/04/10 03:36:55;;;;;;;13.77;10.07;;;5.60;99.90;;;;;;4997419;28;20207;-96
2021/04/10 03:39:21;;;;;;;16.93;8.93;;;5.60;99.90;;;;;;4997798;28;20187;-96
2021/04/10 03:41:47;;;;;;;10.77;7.97;;;5.50;99.90;;;;;;4997412;28;20184;-96
2021/04/10 03:44:12;;;;;;;11.23;8.07;;;5.50;99.90;;;;;;4997479;28;20234;-96
2021/04/10 03:46:38;;;;;;;13.03;7.93;;;5.50;99.90;;;;;;4998459;28;20212;-96
2021/04/10 03:49:05;;;;;;;12.73;7.80;;;5.50;99.90;;;;;;4997258;28;20622;-95
2021/04/10 03:51:31;;;;;;;11.53;7.60;;;5.50;99.90;;;;;;4997228;28;20194;-95
2021/04/10 03:53:58;;;;;;;13.33;7.80;;;5.60;99.90;;;;;;4997469;28;20191;-96
2021/04/10 03:56:23;;;;;;;11.20;7.43;;;5.50;99.90;;;;;;4997143;28;20275;-96
2021/04/10 03:58:50;;;;;;;12.70;7.17;;;5.50;99.90;;;;;;4998307;28;20654;-96
2021/04/10 04:01:16;;;;;;;9.20;6.93;;;5.60;99.90;;;;;;4998207;28;20226;-95
2021/04/10 04:03:41;;;;;;;13.73;7.97;;;5.60;99.90;;;;;;4997227;28;20319;-95
2021/04/10 04:06:07;;;;;;;13.17;8.17;;;5.70;99.90;;;;;;4996708;28;20306;-94
2021/04/10 04:08:33;;;;;;;11.80;8.20;;;5.60;99.90;;;;;;4998135;28;20187;-95
2021/04/10 04:10:59;;;;;;;13.17;8.53;;;5.70;99.90;;;;;;4996886;28;20188;-95
2021/04/10 04:13:24;;;;;;;13.77;8.50;;;5.70;99.90;;;;;;4996805;28;20611;-96
2021/04/10 04:15:50;;;;;;;11.23;8.50;;;5.70;99.90;;;;;;4996746;28;20190;-95
2021/04/10 04:18:16;;;;;;;14.23;9.50;;;5.70;99.90;;;;;;4997227;28;20203;-95
2021/04/10 04:20:41;;;;;;;11.47;8.83;;;5.70;99.90;;;;;;4998033;28;20179;-96
2021/04/10 04:23:07;;;;;;;11.93;8.70;;;5.70;99.90;;;;;;4996736;28;20603;-95
2021/04/10 04:25:33;;;;;;;13.10;9.27;;;5.70;99.90;;;;;;4996391;28;20184;-96
2021/04/10 04:28:00;;;;;;;20.90;11.23;;;5.70;99.90;;;;;;4998067;28;20247;-96
2021/04/10 04:30:27;;;;;;;15.73;10.30;;;5.70;99.90;;;;;;4996437;28;20183;-95
2021/04/10 04:32:52;;;;;;;15.83;10.13;;;5.70;99.90;;;;;;4996948;28;20246;-95
2021/04/10 04:35:18;;;;;;;18.30;10.07;;;5.70;99.90;;;;;;4996349;28;20211;-95
2021/04/10 04:37:44;;;;;;;13.87;9.90;;;5.70;99.90;;;;;;4996258;28;20223;-95
2021/04/10 04:40:11;;;;;;;14.43;10.00;;;5.80;99.90;;;;;;4996335;28;20188;-95
2021/04/10 04:42:37;;;;;;;14.97;9.90;;;5.70;99.90;;;;;;4996371;28;20197;-95
2021/04/10 04:45:05;;;;;;;16.00;9.50;;;5.70;99.90;;;;;;4995694;28;20183;-95
2021/04/10 04:47:31;;;;;;;13.17;9.47;;;5.70;99.90;;;;;;4996215;28;20294;-96
2021/04/10 04:49:56;;;;;;;13.67;9.23;;;5.60;99.90;;;;;;4996532;28;20231;-95
2021/04/10 04:52:22;;;;;;;14.13;9.47;;;5.50;99.90;;;;;;4995820;28;20560;-96
2021/04/10 04:54:48;;;;;;;14.73;9.80;;;5.50;99.90;;;;;;4996208;28;20199;-91
2021/04/10 04:57:13;;;;;;;16.20;10.20;;;5.50;99.90;;;;;;4995619;28;20274;-92
2021/04/10 04:59:39;;;;;;;16.37;9.77;;;5.40;99.90;;;;;;4995930;28;20179;-90
2021/04/10 05:02:05;;;;;;;13.80;8.83;;;5.40;99.90;;;;;;4996064;28;20184;-90
2021/04/10 05:04:30;;;;;;;15.70;9.97;;;5.40;99.90;;;;;;4995805;28;20670;-90
2021/04/10 05:06:56;;;;;;;18.67;10.37;;;5.40;99.90;;;;;;4995403;28;20216;-91
2021/04/10 05:09:22;;;;;;;16.20;10.07;;;5.40;99.90;;;;;;4996043;28;20182;-91
2021/04/10 05:11:49;;;;;;;17.83;9.93;;;5.40;99.90;;;;;;4995806;28;20266;-91
2021/04/10 05:14:15;;;;;;;19.33;10.60;;;5.40;99.90;;;;;;4995728;28;20191;-94
2021/04/10 05:16:40;;;;;;;16.63;10.57;;;5.40;99.90;;;;;;4995669;28;20184;-95
2021/04/10 05:19:06;;;;;;;15.03;9.47;;;5.40;99.90;;;;;;4995754;28;20202;-94
2021/04/10 05:21:32;;;;;;;15.77;10.13;;;5.30;99.90;;;;;;4995248;28;20235;-94
2021/04/10 05:23:58;;;;;;;15.00;9.50;;;5.40;99.90;;;;;;4995378;28;20179;-92
2021/04/10 05:26:23;;;;;;;12.53;9.83;;;5.30;99.90;;;;;;4995157;28;20302;-91
2021/04/10 05:28:49;;;;;;;18.03;10.03;;;5.30;99.90;;;;;;4995715;28;20226;-91
2021/04/10 05:31:15;;;;;;;15.13;9.40;;;5.30;99.90;;;;;;4995191;28;20235;-90
2021/04/10 05:33:43;;;;;;;16.03;9.27;;;5.30;99.90;;;;;;4995519;28;20186;-92
2021/04/10 05:36:10;;;;;;;18.00;9.43;;;5.20;99.90;;;;;;4995247;28;20197;-90
2021/04/10 05:38:35;;;;;;;17.87;10.03;;;5.20;99.90;;;;;;4994986;28;20240;-91
2021/04/10 05:41:01;;;;;;;14.03;9.00;;;5.30;99.90;;;;;;4995306;28;20264;-91
2021/04/10 05:43:27;;;;;;;14.83;8.93;;;5.40;99.90;;;;;;4995317;28;20172;-92
2021/04/10 05:45:53;;;;;;;13.03;8.57;;;5.30;99.90;;;;;;4994812;28;20212;-90
2021/04/10 05:48:19;;;;;;;16.00;9.13;;;5.40;99.90;;;;;;4995647;28;20293;-92
2021/04/10 05:50:45;;;;;;;17.20;9.93;;;5.40;99.90;;;;;;4994432;28;20791;-90
2021/04/10 05:53:11;;;;;;;32.67;18.10;;;5.40;99.90;;;;;;4994596;28;20195;-91
2021/04/10 05:55:37;;;;;;;70.90;56.17;;;5.40;99.90;;;;;;4995019;28;20191;-91
2021/04/10 05:58:02;;;;;;;22.07;13.20;;;5.40;99.90;;;;;;4995289;28;20187;-91
2021/04/10 06:00:28;;;;;;;25.73;17.27;;;5.40;99.90;;;;;;4994739;28;20191;-93
2021/04/10 06:02:55;;;;;;;14.60;10.00;;;5.40;99.90;;;;;;4994254;28;20199;-94
2021/04/10 06:05:21;;;;;;;13.10;8.47;;;5.40;99.90;;;;;;4995310;28;20172;-90
2021/04/10 06:07:51;;;;;;;12.13;8.67;;;5.50;99.90;;;;;;4994050;28;20212;-91
2021/04/10 06:10:21;;;;;;;17.33;9.07;;;5.50;99.90;;;;;;4994683;28;20721;-91
2021/04/10 06:12:48;;;;;;;14.60;11.80;;;5.50;99.90;;;;;;4994776;28;20182;-92
2021/04/10 06:15:19;;;;;;;20.20;17.13;;;5.50;99.90;;;;;;4993779;28;20187;-91
2021/04/10 06:17:46;;;;;;;16.97;10.47;;;5.50;99.90;;;;;;4994677;28;20558;-91
2021/04/10 06:20:13;;;;;;;14.83;9.43;;;5.50;99.90;;;;;;4994326;28;20184;-91
2021/04/10 06:22:39;;;;;;;12.67;8.53;;;5.50;99.90;;;;;;4993249;28;20266;-91
2021/04/10 06:25:06;;;;;;;13.33;9.33;;;5.50;99.90;;;;;;4994696;28;20207;-92
2021/04/10 06:27:33;;;;;;;12.63;8.70;;;5.50;99.90;;;;;;4994450;28;20218;-91
2021/04/10 06:29:59;;;;;;;13.73;8.40;;;5.50;99.90;;;;;;4994709;28;20176;-92
2021/04/10 06:32:25;;;;;;;21.40;13.87;;;5.50;99.90;;;;;;4994690;28;20239;-94
2021/04/10 06:34:50;;;;;;;16.33;9.17;;;5.50;99.90;;;;;;4991202;28;20176;-95
2021/04/10 06:37:16;;;;;;;42.87;28.53;;;5.50;99.90;;;;;;4986262;28;20173;-91
2021/04/10 06:39:42;;;;;;;24.57;17.83;;;5.50;99.90;;;;;;4985368;28;20168;-95
2021/04/10 06:42:08;;;;;;;15.93;10.40;;;5.50;99.90;;;;;;4984900;28;20616;-94
2021/04/10 06:44:34;;;;;;;15.53;9.87;;;5.50;99.90;;;;;;4981800;28;20173;-95
2021/04/10 06:47:06;;;;;;;21.47;10.50;;;5.50;99.90;;;;;;4976221;28;20214;-92
2021/04/10 06:49:32;;;;;;;14.23;8.63;;;5.50;99.90;;;;;;4974990;28;20661;-94
2021/04/10 06:51:59;;;;;;;14.13;9.00;;;5.50;99.90;;;;;;4974837;28;20510;-95
2021/04/10 06:54:30;;;;;;;33.50;17.20;;;5.50;99.90;;;;;;4975656;28;20187;-96
2021/04/10 06:57:21;;;;;;;19.37;8.03;;;5.50;99.90;;;;;;4976848;28;20185;-95
2021/04/10 07:00:04;;;;;;;13.40;7.07;;;5.50;99.90;;;;;;4979266;28;20186;-94
2021/04/10 07:02:32;;;;;;;13.93;6.47;;;5.50;99.90;;;;;;4981161;28;20180;-94
2021/04/10 07:04:59;;;;;;;25.00;8.50;;;5.60;99.90;;;;;;4980395;28;20191;-95
2021/04/10 07:07:26;;;;;;;21.40;11.73;;;5.60;99.90;;;;;;4991538;28;20266;-96
2021/04/10 07:09:52;;;;;;;12.67;6.40;;;5.50;99.90;;;;;;4999488;28;20180;-94
2021/04/10 07:12:19;;;;;;;14.67;8.03;;;5.60;99.90;;;;;;4998252;28;20673;-95
2021/04/10 07:14:44;;;;;;;13.60;6.37;;;5.60;99.90;;;;;;4997948;28;20599;-95
2021/04/10 07:17:14;;;;;;;11.43;5.27;;;5.60;99.90;;;;;;4999220;28;20180;-95
2021/04/10 07:19:40;;;;;;;12.97;6.73;;;5.60;99.90;;;;;;4998040;28;20195;-94
2021/04/10 07:22:14;;;;;;;11.27;5.57;;;5.60;99.90;;;;;;4997559;28;20242;-95
2021/04/10 07:24:45;;;;;;;11.30;5.90;;;5.60;99.90;;;;;;4990941;28;20184;-95
2021/04/10 07:27:20;;;;;;;14.40;6.30;;;5.70;99.90;;;;;;4977893;28;20743;-95
2021/04/10 07:29:59;;;;;;;12.30;5.63;;;5.60;99.90;;;;;;4980414;28;20226;-93
2021/04/10 07:32:27;;;;;;;16.97;5.50;;;5.70;99.90;;;;;;4980659;28;20235;-92
2021/04/10 07:34:53;;;;;;;12.03;5.77;;;5.70;99.90;;;;;;4980981;28;20526;-93
2021/04/10 07:37:42;;;;;;;16.97;5.50;;;5.60;99.90;;;;;;4988489;28;20191;-94
2021/04/10 07:40:09;;;;;;;13.50;5.10;;;5.70;99.90;;;;;;4988750;28;20199;-93
2021/04/10 07:42:43;;;;;;;20.17;6.43;;;5.70;99.90;;;;;;4987606;28;20816;-93
2021/04/10 07:45:22;;;;;;;14.83;5.73;;;5.70;99.90;;;;;;4997476;28;20304;-91
2021/04/10 07:47:49;;;;;;;12.97;5.07;;;5.70;99.90;;;;;;4998993;28;20223;-92
2021/04/10 07:50:21;;;;;;;13.93;5.90;;;5.80;99.90;;;;;;4997452;28;20176;-93
2021/04/10 07:52:48;;;;;;;15.87;5.60;;;5.80;99.90;;;;;;4997133;28;20180;-95
2021/04/10 07:55:51;;;;;;;16.27;5.77;;;5.70;99.90;;;;;;4997043;28;20250;-96
2021/04/10 07:58:21;;;;;;;14.73;6.27;;;5.80;99.90;;;;;;4997865;28;20183;-96
2021/04/10 08:00:48;;;;;;;21.10;7.57;;;5.80;99.90;;;;;;4991613;28;20185;-96
2021/04/10 08:03:31;;;;;;;14.43;6.33;;;5.80;99.90;;;;;;4988809;28;20184;-96
2021/04/10 08:06:06;;;;;;;15.43;6.50;;;5.80;99.90;;;;;;4988504;28;20186;-89
2021/04/10 08:08:53;;;;;;;12.53;6.57;;;5.80;99.90;;;;;;4986033;28;20211;-89
2021/04/10 08:11:40;;;;;;;15.73;7.67;;;5.90;99.90;;;;;;4990071;28;20184;-94
2021/04/10 08:14:13;;;;;;;15.50;7.13;;;5.90;99.90;;;;;;4988588;28;20183;-95
2021/04/10 08:16:43;;;;;;;15.30;7.47;;;5.90;99.90;;;;;;4986667;28;20184;-93
2021/04/10 08:19:09;;;;;;;17.17;7.30;;;5.90;99.90;;;;;;4987820;28;20203;-93
2021/04/10 08:21:35;;;;;;;15.63;7.97;;;5.90;99.90;;;;;;4985877;28;20267;-89
2021/04/10 08:24:22;;;;;;;15.97;8.57;;;5.90;99.90;;;;;;4987880;28;20287;-92
2021/04/10 08:26:56;;;;;;;17.77;8.37;;;5.90;99.90;;;;;;4978303;28;20235;-95
2021/04/10 08:29:23;;;;;;;24.33;8.83;;;5.90;99.90;;;;;;4986849;28;20525;-93
2021/04/10 08:31:50;;;;;;;18.97;9.73;;;5.90;99.90;;;;;;4986837;28;20228;-95
2021/04/10 08:34:16;;;;;;;20.97;10.63;;;6.00;99.90;;;;;;4984567;28;20173;-95
2021/04/10 08:36:44;;;;;;;26.27;10.50;;;6.00;99.90;;;;;;4989191;28;20251;-94
2021/04/10 08:39:11;;;;;;;21.80;9.53;;;6.00;99.90;;;;;;4977911;28;20184;-95
2021/04/10 08:41:39;;;;;;;16.40;9.17;;;6.00;99.90;;;;;;4976725;28;20667;-94
2021/04/10 08:44:07;;;;;;;21.50;9.50;;;6.00;99.90;;;;;;4978591;28;20180;-94
2021/04/10 08:46:36;;;;;;;21.77;10.77;;;5.90;99.90;;;;;;4996045;28;20243;-95
2021/04/10 08:49:02;;;;;;;18.43;9.27;;;6.00;99.90;;;;;;4996284;28;20703;-95
2021/04/10 08:51:32;;;;;;;18.67;8.47;;;6.00;99.90;;;;;;4995990;28;20376;-95
2021/04/10 08:53:59;;;;;;;19.83;8.40;;;6.00;99.90;;;;;;4996088;28;20542;-95
2021/04/10 08:56:27;;;;;;;18.33;7.40;;;6.00;99.90;;;;;;4995714;28;20188;-95
2021/04/10 08:59:07;;;;;;;16.77;7.00;;;6.10;99.90;;;;;;4996230;28;20236;-95
2021/04/10 09:01:35;;;;;;;18.77;9.10;;;6.20;99.90;;;;;;4996089;28;20507;-95
2021/04/10 09:04:00;;;;;;;20.33;7.47;;;6.10;99.90;;;;;;4996053;28;20191;-95
2021/04/10 09:06:29;;;;;;;16.87;7.53;;;6.20;99.90;;;;;;4996443;28;20200;-95
2021/04/10 09:09:26;;;;;;;19.83;7.50;;;6.20;99.90;;;;;;4994963;28;20207;-94
2021/04/10 09:12:16;;;;;;;18.23;6.03;;;6.30;99.90;;;;;;4995719;28;20172;-93
2021/04/10 09:14:46;;;;;;;16.60;6.07;;;6.20;99.90;;;;;;4976172;28;20218;-95
2021/04/10 09:17:12;;;;;;;18.33;6.37;;;6.20;99.90;;;;;;4975907;28;20181;-95
2021/04/10 09:19:38;;;;;;;17.10;6.10;;;6.30;99.90;;;;;;4976017;28;20187;-94
2021/04/10 09:22:04;;;;;;;13.27;6.17;;;6.20;99.90;;;;;;4982983;28;20183;-95
2021/04/10 09:24:41;;;;;;;14.33;6.03;;;6.30;99.90;;;;;;4975872;28;20189;-90
2021/04/10 09:27:21;;;;;;;20.77;5.77;;;6.30;99.90;;;;;;4983323;28;20211;-93
2021/04/10 09:29:48;;;;;;;12.33;4.97;;;6.50;99.90;;;;;;4976090;28;20207;-92
2021/04/10 09:32:41;;;;;;;13.57;4.67;;;6.40;99.90;;;;;;4977684;28;20235;-94
2021/04/10 09:35:09;;;;;;;15.50;4.23;;;6.40;99.90;;;;;;4976147;28;20169;-93
2021/04/10 09:37:36;;;;;;;16.80;4.63;;;6.30;99.90;;;;;;4988433;28;20510;-92
2021/04/10 09:40:21;;;;;;;15.67;4.40;;;6.30;99.90;;;;;;4995669;28;20199;-92
2021/04/10 09:42:52;;;;;;;12.93;4.30;;;6.30;99.90;;;;;;4995835;28;20194;-92
2021/04/10 09:45:25;;;;;;;13.47;4.50;;;6.30;99.90;;;;;;4995079;28;20168;-93
2021/04/10 09:50:35;;;;;;;16.93;4.40;;;6.40;99.90;;;;;;4995998;28;20501;-92
2021/04/10 09:53:08;;;;;;;17.27;4.17;;;6.50;99.90;;;;;;4994760;28;20238;-92
2021/04/10 09:55:36;;;;;;;14.90;4.10;;;6.50;99.90;;;;;;4994974;28;20242;-93
2021/04/10 09:58:16;;;;;;;12.43;4.03;;;6.50;99.90;;;;;;4995126;28;20187;-94
2021/04/10 10:00:50;;;;;;;9.07;3.40;;;6.50;99.90;;;;;;4994733;28;20210;-93
2021/04/10 10:03:18;;;;;;;13.17;4.13;;;6.50;99.90;;;;;;4994925;28;20180;-93
2021/04/10 10:05:46;;;;;;;10.20;3.80;;;6.50;99.90;;;;;;4994648;28;20565;-94
2021/04/10 10:08:14;;;;;;;15.90;3.73;;;6.50;99.90;;;;;;4994675;28;20273;-94
2021/04/10 10:10:41;;;;;;;16.27;3.87;;;6.60;99.90;;;;;;4994888;28;20203;-94
2021/04/10 10:13:10;;;;;;;8.93;2.90;;;6.60;99.90;;;;;;4994841;28;20184;-92
2021/04/10 10:15:37;;;;;;;12.27;3.57;;;6.60;99.90;;;;;;4994480;28;20180;-94
2021/04/10 10:18:26;;;;;;;14.57;4.57;;;6.50;99.90;;;;;;4994679;28;20230;-94
2021/04/10 10:21:04;;;;;;;15.43;4.33;;;6.50;99.90;;;;;;4995963;28;20172;-94
2021/04/10 10:23:37;;;;;;;9.60;3.40;;;6.50;99.90;;;;;;4994494;28;20171;-93
2021/04/10 10:26:12;;;;;;;12.30;3.47;;;6.50;99.90;;;;;;4994138;28;20186;-93
2021/04/10 10:28:45;;;;;;;10.93;3.50;;;6.60;99.90;;;;;;4994496;28;20211;-93
2021/04/10 10:31:17;;;;;;;14.63;3.37;;;6.60;99.90;;;;;;4993788;28;20311;-94
2021/04/10 10:33:43;;;;;;;12.70;2.83;;;6.70;99.90;;;;;;4994512;28;20234;-94
2021/04/10 10:36:11;;;;;;;11.27;3.50;;;6.80;99.90;;;;;;4994223;28;20184;-93
2021/04/10 10:38:40;;;;;;;9.27;3.43;;;6.90;99.90;;;;;;4994425;28;20294;-92
2021/04/10 10:41:08;;;;;;;13.37;3.40;;;7.00;99.90;;;;;;4994399;28;20194;-93
2021/04/10 10:43:35;;;;;;;13.27;3.13;;;7.00;99.90;;;;;;4994385;28;20176;-95
2021/04/10 10:46:09;;;;;;;11.33;3.00;;;7.10;99.90;;;;;;4994046;28;20180;-92
2021/04/10 10:48:43;;;;;;;10.93;2.90;;;7.20;99.90;;;;;;4994842;28;20164;-92
2021/04/10 10:51:18;;;;;;;14.57;3.50;;;7.30;99.90;;;;;;4994073;28;20175;-93
2021/04/10 10:53:49;;;;;;;11.67;3.43;;;7.20;99.90;;;;;;4994088;28;20183;-94
2021/04/10 10:56:33;;;;;;;14.63;3.90;;;7.10;99.90;;;;;;4986949;28;20627;-92
2021/04/10 10:59:03;;;;;;;12.00;3.33;;;7.00;99.90;;;;;;4973879;28;20187;-93
2021/04/10 11:01:34;;;;;;;13.17;3.40;;;6.90;99.90;;;;;;4974584;28;20181;-92
2021/04/10 11:04:08;;;;;;;15.70;3.37;;;7.00;99.90;;;;;;4976039;28;20207;-93
2021/04/10 11:06:46;;;;;;;15.97;4.43;;;7.00;99.90;;;;;;4978670;28;20217;-93
2021/04/10 11:09:18;;;;;;;8.23;3.30;;;7.00;99.90;;;;;;4994620;28;20202;-93
2021/04/10 11:11:48;;;;;;;13.30;3.80;;;7.10;99.90;;;;;;4996465;28;20180;-93
2021/04/10 11:14:40;;;;;;;11.63;3.40;;;7.10;99.90;;;;;;4993739;28;20203;-93
2021/04/10 11:17:06;;;;;;;11.50;3.30;;;7.10;99.90;;;;;;4994280;28;20523;-94
2021/04/10 11:19:45;;;;;;;15.80;3.93;;;7.10;99.90;;;;;;4997535;28;20180;-94
2021/04/10 11:22:16;;;;;;;15.97;3.90;;;7.10;99.90;;;;;;4994783;28;20183;-93
2021/04/10 11:24:51;;;;;;;12.60;4.13;;;7.10;99.90;;;;;;4994802;28;20195;-93
2021/04/10 11:27:22;;;;;;;11.17;4.17;;;7.20;99.90;;;;;;4993800;28;20222;-93
2021/04/10 11:29:51;;;;;;;16.53;5.00;;;7.20;99.90;;;;;;4987937;28;20179;-95
2021/04/10 11:32:21;;;;;;;15.20;4.73;;;7.20;99.90;;;;;;4993377;28;20867;-92
2021/04/10 11:34:47;;;;;;;19.40;5.40;;;7.20;99.90;;;;;;4986784;28;20176;-93
2021/04/10 11:37:18;;;;;;;17.40;4.70;;;7.20;99.90;;;;;;4980046;28;20653;-93
2021/04/10 11:39:48;;;;;;;12.20;4.50;;;7.30;99.90;;;;;;4966468;28;20192;-91
2021/04/10 11:42:28;;;;;;;14.13;4.60;;;7.40;99.90;;;;;;4969478;28;20231;-93
2021/04/10 11:44:56;;;;;;;18.83;5.10;;;7.40;99.90;;;;;;4979329;28;20222;-93
2021/04/10 11:47:28;;;;;;;16.50;6.77;;;7.40;99.90;;;;;;4981070;28;20319;-92
2021/04/10 11:50:04;;;;;;;15.30;5.40;;;7.30;99.90;;;;;;4978559;28;20246;-93
2021/04/10 11:52:30;;;;;;;17.40;6.37;;;7.40;99.90;;;;;;4996584;28;20195;-92
2021/04/10 11:55:01;;;;;;;20.27;5.40;;;7.50;99.90;;;;;;4991688;28;20219;-93
2021/04/10 11:57:29;;;;;;;13.83;5.20;;;7.60;99.90;;;;;;5009932;28;20195;-93
2021/04/10 12:00:12;;;;;;;12.70;4.57;;;7.60;99.90;;;;;;4996172;28;20273;-92
2021/04/10 12:02:48;;;;;;;26.07;12.20;;;7.60;99.90;;;;;;4991043;28;20283;-92
2021/04/10 12:05:24;;;;;;;20.07;9.77;;;7.60;99.90;;;;;;4989294;28;20297;-93
2021/04/10 12:08:07;;;;;;;14.97;5.77;;;7.60;99.90;;;;;;4996508;28;20238;-93
2021/04/10 12:10:35;;;;;;;13.93;5.93;;;7.50;99.90;;;;;;4989405;28;20236;-92
2021/04/10 12:13:00;;;;;;;10.73;4.53;;;7.50;99.90;;;;;;4994667;28;20215;-92
2021/04/10 12:15:35;;;;;;;14.07;5.00;;;7.40;99.90;;;;;;4994465;28;20284;-91
2021/04/10 12:18:02;;;;;;;18.47;5.73;;;7.40;99.90;;;;;;5001274;28;20187;-92
2021/04/10 12:20:28;;;;;;;12.00;4.80;;;7.30;99.90;;;;;;4986089;28;20249;-93
2021/04/10 12:22:53;;;;;;;17.20;6.80;;;7.30;99.90;;;;;;5007238;28;20512;-93
2021/04/10 12:25:20;;;;;;;11.97;4.70;;;7.30;99.90;;;;;;4987075;28;20695;-92
2021/04/10 12:27:46;;;;;;;18.80;6.00;;;7.40;99.90;;;;;;5006741;28;20224;-92
2021/04/10 12:30:12;;;;;;;13.03;4.63;;;7.40;99.90;;;;;;4980487;28;20674;-95
2021/04/10 12:32:38;;;;;;;13.67;4.60;;;7.50;99.90;;;;;;5021111;28;20234;-93
2021/04/10 12:35:04;;;;;;;13.87;4.60;;;7.60;99.90;;;;;;4994333;28;20188;-94
2021/04/10 12:37:30;;;;;;;12.50;4.37;;;7.60;99.90;;;;;;4965520;28;20327;-93
2021/04/10 12:39:56;;;;;;;13.53;4.43;;;7.80;99.90;;;;;;4977139;28;20279;-92
2021/04/10 12:42:22;;;;;;;14.90;4.87;;;7.80;99.90;;;;;;4988812;28;20262;-92
2021/04/10 12:44:48;;;;;;;15.40;5.17;;;7.80;99.90;;;;;;4997021;28;20184;-93
2021/04/10 12:47:18;;;;;;;12.17;4.77;;;7.80;99.90;;;;;;4994972;28;20226;-91
2021/04/10 12:49:45;;;;;;;16.83;5.80;;;7.80;99.90;;;;;;5000075;28;20234;-94
2021/04/10 12:52:11;;;;;;;10.50;3.60;;;7.80;99.90;;;;;;4994749;28;20230;-92
2021/04/10 12:54:37;;;;;;;13.40;4.00;;;7.90;99.90;;;;;;4997341;28;20198;-94
2021/04/10 12:57:04;;;;;;;16.73;4.70;;;7.90;99.90;;;;;;4994497;28;20226;-94
2021/04/10 12:59:30;;;;;;;15.67;4.13;;;7.90;99.90;;;;;;4997205;28;20195;-94